sensor_id;sensor_type;location;lat;lon;timestamp;P1;durP1;ratioP1;P2;durP2;ratioP2
62610;SDS011;48683;48.084;17.272;2023-06-24T00:02:13;4.57;;;3.80;;
62610;SDS011;48683;48.084;17.272;2023-06-24T00:04:39;6.57;;;4.47;;
62610;SDS011;48683;48.084;17.272;2023-06-24T00:07:04;5.80;;;4.10;;
62610;SDS011;48683;48.084;17.272;2023-06-24T00:09:30;10.13;;;4.70;;
62610;SDS011;48683;48.084;17.272;2023-06-24T00:11:55;6.00;;;4.43;;
62610;SDS011;48683;48.084;17.272;2023-06-24T00:14:23;5.35;;;3.83;;
62610;SDS011;48683;48.084;17.272;2023-06-24T00:16:50;4.53;;;3.63;;
62610;SDS011;48683;48.084;17.272;2023-06-24T00:19:19;6.03;;;4.13;;
62610;SDS011;48683;48.084;17.272;2023-06-24T00:21:48;5.45;;;3.83;;
62610;SDS011;48683;48.084;17.272;2023-06-24T00:24:16;5.88;;;3.70;;
62610;SDS011;48683;48.084;17.272;2023-06-24T00:26:42;7.10;;;3.90;;
62610;SDS011;48683;48.084;17.272;2023-06-24T00:29:07;5.57;;;3.83;;
62610;SDS011;48683;48.084;17.272;2023-06-24T00:31:33;4.53;;;3.57;;
62610;SDS011;48683;48.084;17.272;2023-06-24T00:33:58;4.70;;;3.33;;
62610;SDS011;48683;48.084;17.272;2023-06-24T00:36:24;5.00;;;3.13;;
62610;SDS011;48683;48.084;17.272;2023-06-24T00:38:49;4.17;;;3.03;;
62610;SDS011;48683;48.084;17.272;2023-06-24T00:41:15;3.83;;;3.40;;
62610;SDS011;48683;48.084;17.272;2023-06-24T00:43:42;5.75;;;3.40;;
62610;SDS011;48683;48.084;17.272;2023-06-24T00:46:07;5.80;;;3.30;;
62610;SDS011;48683;48.084;17.272;2023-06-24T00:48:33;6.13;;;3.00;;
62610;SDS011;48683;48.084;17.272;2023-06-24T00:50:58;4.43;;;3.07;;
62610;SDS011;48683;48.084;17.272;2023-06-24T00:53:24;3.63;;;2.53;;
62610;SDS011;48683;48.084;17.272;2023-06-24T00:55:50;3.37;;;2.40;;
62610;SDS011;48683;48.084;17.272;2023-06-24T00:58:17;4.57;;;2.50;;
62610;SDS011;48683;48.084;17.272;2023-06-24T01:00:45;3.80;;;2.53;;
62610;SDS011;48683;48.084;17.272;2023-06-24T01:03:13;4.82;;;2.20;;
62610;SDS011;48683;48.084;17.272;2023-06-24T01:05:38;3.83;;;2.40;;
62610;SDS011;48683;48.084;17.272;2023-06-24T01:08:05;3.97;;;2.42;;
62610;SDS011;48683;48.084;17.272;2023-06-24T01:10:31;3.63;;;2.60;;
62610;SDS011;48683;48.084;17.272;2023-06-24T01:12:57;2.60;;;2.40;;
62610;SDS011;48683;48.084;17.272;2023-06-24T01:15:22;4.13;;;2.30;;
62610;SDS011;48683;48.084;17.272;2023-06-24T01:17:56;2.57;;;2.30;;
62610;SDS011;48683;48.084;17.272;2023-06-24T01:28:44;2.13;;;1.70;;
62610;SDS011;48683;48.084;17.272;2023-06-24T01:36:46;4.65;;;1.70;;
62610;SDS011;48683;48.084;17.272;2023-06-24T01:39:16;2.80;;;1.90;;
62610;SDS011;48683;48.084;17.272;2023-06-24T01:41:44;1.60;;;1.48;;
62610;SDS011;48683;48.084;17.272;2023-06-24T01:44:27;2.20;;;1.90;;
62610;SDS011;48683;48.084;17.272;2023-06-24T01:46:54;2.22;;;1.95;;
62610;SDS011;48683;48.084;17.272;2023-06-24T01:49:22;2.53;;;1.70;;
62610;SDS011;48683;48.084;17.272;2023-06-24T01:51:48;3.28;;;1.70;;
62610;SDS011;48683;48.084;17.272;2023-06-24T01:54:15;2.00;;;1.80;;
62610;SDS011;48683;48.084;17.272;2023-06-24T01:56:47;3.67;;;1.70;;
62610;SDS011;48683;48.084;17.272;2023-06-24T01:59:14;2.58;;;1.80;;
62610;SDS011;48683;48.084;17.272;2023-06-24T02:01:42;2.33;;;1.90;;
62610;SDS011;48683;48.084;17.272;2023-06-24T02:04:09;4.15;;;1.63;;
62610;SDS011;48683;48.084;17.272;2023-06-24T02:06:36;1.73;;;1.63;;
62610;SDS011;48683;48.084;17.272;2023-06-24T02:09:04;2.22;;;1.75;;
62610;SDS011;48683;48.084;17.272;2023-06-24T02:11:31;2.10;;;1.48;;
62610;SDS011;48683;48.084;17.272;2023-06-24T02:13:59;3.40;;;1.60;;
62610;SDS011;48683;48.084;17.272;2023-06-24T02:16:26;3.00;;;1.73;;
62610;SDS011;48683;48.084;17.272;2023-06-24T02:18:52;3.05;;;1.90;;
62610;SDS011;48683;48.084;17.272;2023-06-24T02:21:20;3.38;;;1.80;;
62610;SDS011;48683;48.084;17.272;2023-06-24T02:23:46;2.08;;;1.60;;
62610;SDS011;48683;48.084;17.272;2023-06-24T02:28:40;2.80;;;1.70;;
62610;SDS011;48683;48.084;17.272;2023-06-24T02:31:06;1.88;;;1.52;;
62610;SDS011;48683;48.084;17.272;2023-06-24T02:33:34;2.42;;;1.45;;
62610;SDS011;48683;48.084;17.272;2023-06-24T02:36:00;2.33;;;1.30;;
62610;SDS011;48683;48.084;17.272;2023-06-24T02:38:25;4.13;;;1.80;;
62610;SDS011;48683;48.084;17.272;2023-06-24T02:40:51;1.93;;;1.30;;
62610;SDS011;48683;48.084;17.272;2023-06-24T02:43:17;2.13;;;1.60;;
62610;SDS011;48683;48.084;17.272;2023-06-24T02:45:42;3.33;;;1.77;;
62610;SDS011;48683;48.084;17.272;2023-06-24T02:50:35;1.43;;;1.33;;
62610;SDS011;48683;48.084;17.272;2023-06-24T02:53:01;2.60;;;1.20;;
62610;SDS011;48683;48.084;17.272;2023-06-24T02:55:27;2.93;;;1.50;;
62610;SDS011;48683;48.084;17.272;2023-06-24T03:00:20;1.50;;;1.30;;
62610;SDS011;48683;48.084;17.272;2023-06-24T03:02:46;3.63;;;1.37;;
62610;SDS011;48683;48.084;17.272;2023-06-24T03:05:12;3.53;;;1.23;;
62610;SDS011;48683;48.084;17.272;2023-06-24T03:07:39;1.52;;;1.27;;
62610;SDS011;48683;48.084;17.272;2023-06-24T03:10:06;1.23;;;1.13;;
62610;SDS011;48683;48.084;17.272;2023-06-24T03:12:32;1.17;;;1.07;;
62610;SDS011;48683;48.084;17.272;2023-06-24T03:14:57;1.17;;;1.10;;
62610;SDS011;48683;48.084;17.272;2023-06-24T03:17:23;2.40;;;1.60;;
62610;SDS011;48683;48.084;17.272;2023-06-24T03:19:49;3.00;;;1.00;;
62610;SDS011;48683;48.084;17.272;2023-06-24T03:22:15;2.93;;;1.27;;
62610;SDS011;48683;48.084;17.272;2023-06-24T03:24:42;1.27;;;1.17;;
62610;SDS011;48683;48.084;17.272;2023-06-24T03:27:07;1.57;;;1.10;;
62610;SDS011;48683;48.084;17.272;2023-06-24T03:29:33;2.93;;;1.10;;
62610;SDS011;48683;48.084;17.272;2023-06-24T03:31:58;1.00;;;0.90;;
62610;SDS011;48683;48.084;17.272;2023-06-24T03:34:23;1.30;;;1.20;;
62610;SDS011;48683;48.084;17.272;2023-06-24T03:36:50;3.22;;;0.80;;
62610;SDS011;48683;48.084;17.272;2023-06-24T03:39:16;0.80;;;0.70;;
62610;SDS011;48683;48.084;17.272;2023-06-24T03:41:41;0.83;;;0.83;;
62610;SDS011;48683;48.084;17.272;2023-06-24T03:44:06;0.70;;;0.70;;
62610;SDS011;48683;48.084;17.272;2023-06-24T03:46:32;1.23;;;0.70;;
62610;SDS011;48683;48.084;17.272;2023-06-24T03:48:58;1.17;;;0.70;;
62610;SDS011;48683;48.084;17.272;2023-06-24T03:51:24;0.95;;;0.70;;
62610;SDS011;48683;48.084;17.272;2023-06-24T03:53:50;0.90;;;0.60;;
62610;SDS011;48683;48.084;17.272;2023-06-24T03:56:16;0.65;;;0.40;;
62610;SDS011;48683;48.084;17.272;2023-06-24T03:58:42;1.20;;;0.67;;
62610;SDS011;48683;48.084;17.272;2023-06-24T04:01:07;2.17;;;0.50;;
62610;SDS011;48683;48.084;17.272;2023-06-24T04:03:34;0.45;;;0.45;;
62610;SDS011;48683;48.084;17.272;2023-06-24T04:05:59;0.70;;;0.60;;
62610;SDS011;48683;48.084;17.272;2023-06-24T04:08:27;0.50;;;0.50;;
62610;SDS011;48683;48.084;17.272;2023-06-24T04:10:54;1.33;;;0.40;;
62610;SDS011;48683;48.084;17.272;2023-06-24T04:13:20;0.40;;;0.40;;
62610;SDS011;48683;48.084;17.272;2023-06-24T04:15:45;1.27;;;0.40;;
62610;SDS011;48683;48.084;17.272;2023-06-24T04:18:11;1.27;;;0.47;;
62610;SDS011;48683;48.084;17.272;2023-06-24T04:20:36;0.40;;;0.40;;
62610;SDS011;48683;48.084;17.272;2023-06-24T04:23:01;0.40;;;0.20;;
62610;SDS011;48683;48.084;17.272;2023-06-24T04:25:28;0.95;;;0.45;;
62610;SDS011;48683;48.084;17.272;2023-06-24T04:27:54;0.37;;;0.30;;
62610;SDS011;48683;48.084;17.272;2023-06-24T04:30:19;0.50;;;0.40;;
62610;SDS011;48683;48.084;17.272;2023-06-24T04:32:44;0.30;;;0.30;;
62610;SDS011;48683;48.084;17.272;2023-06-24T04:35:10;0.27;;;0.27;;
62610;SDS011;48683;48.084;17.272;2023-06-24T04:37:35;0.40;;;0.40;;
62610;SDS011;48683;48.084;17.272;2023-06-24T04:40:00;0.73;;;0.37;;
62610;SDS011;48683;48.084;17.272;2023-06-24T04:42:26;0.73;;;0.30;;
62610;SDS011;48683;48.084;17.272;2023-06-24T04:44:51;0.60;;;0.30;;
62610;SDS011;48683;48.084;17.272;2023-06-24T04:47:17;0.70;;;0.30;;
62610;SDS011;48683;48.084;17.272;2023-06-24T04:49:43;0.10;;;0.10;;
62610;SDS011;48683;48.084;17.272;2023-06-24T04:52:08;2.13;;;0.43;;
62610;SDS011;48683;48.084;17.272;2023-06-24T04:54:34;0.10;;;0.10;;
62610;SDS011;48683;48.084;17.272;2023-06-24T04:56:59;0.20;;;0.20;;
62610;SDS011;48683;48.084;17.272;2023-06-24T04:59:24;1.77;;;0.20;;
62610;SDS011;48683;48.084;17.272;2023-06-24T05:01:50;0.47;;;0.40;;
62610;SDS011;48683;48.084;17.272;2023-06-24T05:04:15;1.03;;;0.90;;
62610;SDS011;48683;48.084;17.272;2023-06-24T05:06:40;0.30;;;0.20;;
62610;SDS011;48683;48.084;17.272;2023-06-24T05:09:06;0.57;;;0.27;;
62610;SDS011;48683;48.084;17.272;2023-06-24T05:11:31;0.20;;;0.20;;
62610;SDS011;48683;48.084;17.272;2023-06-24T05:13:57;1.47;;;0.30;;
62610;SDS011;48683;48.084;17.272;2023-06-24T05:16:23;0.20;;;0.20;;
62610;SDS011;48683;48.084;17.272;2023-06-24T05:18:49;0.68;;;0.40;;
62610;SDS011;48683;48.084;17.272;2023-06-24T05:21:15;0.40;;;0.40;;
62610;SDS011;48683;48.084;17.272;2023-06-24T05:23:40;0.63;;;0.43;;
62610;SDS011;48683;48.084;17.272;2023-06-24T05:26:06;0.63;;;0.40;;
62610;SDS011;48683;48.084;17.272;2023-06-24T05:28:31;4.37;;;0.60;;
62610;SDS011;48683;48.084;17.272;2023-06-24T05:30:57;0.60;;;0.37;;
62610;SDS011;48683;48.084;17.272;2023-06-24T05:33:22;0.20;;;0.20;;
62610;SDS011;48683;48.084;17.272;2023-06-24T05:35:47;0.57;;;0.40;;
62610;SDS011;48683;48.084;17.272;2023-06-24T05:38:14;1.65;;;0.60;;
62610;SDS011;48683;48.084;17.272;2023-06-24T05:40:39;1.60;;;0.40;;
62610;SDS011;48683;48.084;17.272;2023-06-24T05:43:05;1.10;;;0.30;;
62610;SDS011;48683;48.084;17.272;2023-06-24T05:45:30;2.03;;;0.60;;
62610;SDS011;48683;48.084;17.272;2023-06-24T05:47:55;2.20;;;1.30;;
62610;SDS011;48683;48.084;17.272;2023-06-24T05:50:21;3.20;;;1.83;;
62610;SDS011;48683;48.084;17.272;2023-06-24T05:52:46;4.20;;;1.60;;
62610;SDS011;48683;48.084;17.272;2023-06-24T05:55:11;1.90;;;1.20;;
62610;SDS011;48683;48.084;17.272;2023-06-24T05:57:38;0.73;;;0.73;;
62610;SDS011;48683;48.084;17.272;2023-06-24T06:00:04;1.33;;;0.97;;
62610;SDS011;48683;48.084;17.272;2023-06-24T06:02:31;2.25;;;0.68;;
62610;SDS011;48683;48.084;17.272;2023-06-24T06:04:56;1.07;;;0.60;;
62610;SDS011;48683;48.084;17.272;2023-06-24T06:07:21;0.73;;;0.53;;
62610;SDS011;48683;48.084;17.272;2023-06-24T06:09:47;0.63;;;0.50;;
62610;SDS011;48683;48.084;17.272;2023-06-24T06:12:12;0.70;;;0.70;;
62610;SDS011;48683;48.084;17.272;2023-06-24T06:14:37;3.40;;;1.13;;
62610;SDS011;48683;48.084;17.272;2023-06-24T06:17:03;1.37;;;0.40;;
62610;SDS011;48683;48.084;17.272;2023-06-24T06:19:28;0.67;;;0.50;;
62610;SDS011;48683;48.084;17.272;2023-06-24T06:21:53;2.07;;;0.60;;
62610;SDS011;48683;48.084;17.272;2023-06-24T06:24:19;1.03;;;0.60;;
62610;SDS011;48683;48.084;17.272;2023-06-24T06:26:44;4.37;;;1.10;;
62610;SDS011;48683;48.084;17.272;2023-06-24T06:29:10;0.63;;;0.50;;
62610;SDS011;48683;48.084;17.272;2023-06-24T06:31:36;0.50;;;0.50;;
62610;SDS011;48683;48.084;17.272;2023-06-24T06:34:02;1.20;;;0.80;;
62610;SDS011;48683;48.084;17.272;2023-06-24T06:36:28;1.73;;;0.93;;
62610;SDS011;48683;48.084;17.272;2023-06-24T06:38:53;0.77;;;0.60;;
62610;SDS011;48683;48.084;17.272;2023-06-24T06:41:18;1.13;;;0.60;;
62610;SDS011;48683;48.084;17.272;2023-06-24T06:43:49;0.77;;;0.70;;
62610;SDS011;48683;48.084;17.272;2023-06-24T06:46:17;0.60;;;0.60;;
62610;SDS011;48683;48.084;17.272;2023-06-24T06:48:43;2.67;;;0.70;;
62610;SDS011;48683;48.084;17.272;2023-06-24T06:51:08;1.20;;;0.30;;
62610;SDS011;48683;48.084;17.272;2023-06-24T06:53:33;3.20;;;0.80;;
62610;SDS011;48683;48.084;17.272;2023-06-24T06:55:59;0.83;;;0.60;;
62610;SDS011;48683;48.084;17.272;2023-06-24T06:58:24;1.47;;;0.90;;
62610;SDS011;48683;48.084;17.272;2023-06-24T07:00:50;0.90;;;0.70;;
62610;SDS011;48683;48.084;17.272;2023-06-24T07:03:15;0.83;;;0.70;;
62610;SDS011;48683;48.084;17.272;2023-06-24T07:05:41;2.07;;;0.70;;
62610;SDS011;48683;48.084;17.272;2023-06-24T07:08:06;2.47;;;0.60;;
62610;SDS011;48683;48.084;17.272;2023-06-24T07:10:32;1.03;;;0.60;;
62610;SDS011;48683;48.084;17.272;2023-06-24T07:12:57;2.40;;;0.87;;
62610;SDS011;48683;48.084;17.272;2023-06-24T07:15:24;2.30;;;0.87;;
62610;SDS011;48683;48.084;17.272;2023-06-24T07:17:50;0.95;;;0.90;;
62610;SDS011;48683;48.084;17.272;2023-06-24T07:20:15;0.77;;;0.63;;
62610;SDS011;48683;48.084;17.272;2023-06-24T07:22:40;2.20;;;0.93;;
62610;SDS011;48683;48.084;17.272;2023-06-24T07:25:06;1.30;;;0.80;;
62610;SDS011;48683;48.084;17.272;2023-06-24T07:27:31;1.37;;;0.90;;
62610;SDS011;48683;48.084;17.272;2023-06-24T07:29:57;0.90;;;0.63;;
62610;SDS011;48683;48.084;17.272;2023-06-24T07:32:22;4.90;;;0.80;;
62610;SDS011;48683;48.084;17.272;2023-06-24T07:34:47;1.03;;;0.80;;
62610;SDS011;48683;48.084;17.272;2023-06-24T07:37:13;0.83;;;0.77;;
62610;SDS011;48683;48.084;17.272;2023-06-24T07:39:38;3.80;;;1.00;;
62610;SDS011;48683;48.084;17.272;2023-06-24T07:42:04;1.43;;;1.03;;
62610;SDS011;48683;48.084;17.272;2023-06-24T07:44:29;1.40;;;1.10;;
62610;SDS011;48683;48.084;17.272;2023-06-24T07:46:54;2.40;;;0.70;;
62610;SDS011;48683;48.084;17.272;2023-06-24T07:49:20;0.80;;;0.63;;
62610;SDS011;48683;48.084;17.272;2023-06-24T07:51:45;0.80;;;0.80;;
62610;SDS011;48683;48.084;17.272;2023-06-24T07:54:10;0.70;;;0.70;;
62610;SDS011;48683;48.084;17.272;2023-06-24T07:56:36;1.73;;;0.90;;
62610;SDS011;48683;48.084;17.272;2023-06-24T07:59:02;2.77;;;0.90;;
62610;SDS011;48683;48.084;17.272;2023-06-24T08:01:28;1.77;;;0.80;;
62610;SDS011;48683;48.084;17.272;2023-06-24T08:03:53;0.70;;;0.70;;
62610;SDS011;48683;48.084;17.272;2023-06-24T08:06:18;1.30;;;0.80;;
62610;SDS011;48683;48.084;17.272;2023-06-24T08:08:44;2.30;;;1.07;;
62610;SDS011;48683;48.084;17.272;2023-06-24T08:11:11;1.02;;;0.98;;
62610;SDS011;48683;48.084;17.272;2023-06-24T08:13:36;1.10;;;1.00;;
62610;SDS011;48683;48.084;17.272;2023-06-24T08:16:02;0.80;;;0.80;;
62610;SDS011;48683;48.084;17.272;2023-06-24T08:18:27;3.60;;;0.90;;
62610;SDS011;48683;48.084;17.272;2023-06-24T08:20:52;3.50;;;1.10;;
62610;SDS011;48683;48.084;17.272;2023-06-24T08:23:18;1.00;;;0.80;;
62610;SDS011;48683;48.084;17.272;2023-06-24T08:25:43;0.80;;;0.80;;
62610;SDS011;48683;48.084;17.272;2023-06-24T08:28:10;4.03;;;1.00;;
62610;SDS011;48683;48.084;17.272;2023-06-24T08:30:35;0.95;;;0.95;;
62610;SDS011;48683;48.084;17.272;2023-06-24T08:33:01;2.13;;;1.13;;
62610;SDS011;48683;48.084;17.272;2023-06-24T08:35:26;2.80;;;1.30;;
62610;SDS011;48683;48.084;17.272;2023-06-24T08:37:51;0.83;;;0.83;;
62610;SDS011;48683;48.084;17.272;2023-06-24T08:40:17;1.20;;;1.10;;
62610;SDS011;48683;48.084;17.272;2023-06-24T08:42:42;2.43;;;1.00;;
62610;SDS011;48683;48.084;17.272;2023-06-24T08:45:08;1.87;;;1.00;;
62610;SDS011;48683;48.084;17.272;2023-06-24T08:47:34;3.60;;;1.50;;
62610;SDS011;48683;48.084;17.272;2023-06-24T08:50:11;3.38;;;1.30;;
62610;SDS011;48683;48.084;17.272;2023-06-24T08:52:37;1.27;;;1.17;;
62610;SDS011;48683;48.084;17.272;2023-06-24T08:55:04;1.13;;;1.02;;
62610;SDS011;48683;48.084;17.272;2023-06-24T08:57:31;1.48;;;1.25;;
62610;SDS011;48683;48.084;17.272;2023-06-24T08:59:57;1.57;;;1.30;;
62610;SDS011;48683;48.084;17.272;2023-06-24T09:02:22;1.73;;;1.10;;
62610;SDS011;48683;48.084;17.272;2023-06-24T09:04:47;3.00;;;1.10;;
62610;SDS011;48683;48.084;17.272;2023-06-24T09:07:26;1.25;;;1.15;;
62610;SDS011;48683;48.084;17.272;2023-06-24T09:09:53;1.00;;;0.90;;
62610;SDS011;48683;48.084;17.272;2023-06-24T09:12:18;1.00;;;1.00;;
62610;SDS011;48683;48.084;17.272;2023-06-24T09:14:50;4.77;;;1.00;;
62610;SDS011;48683;48.084;17.272;2023-06-24T09:17:15;1.27;;;1.17;;
62610;SDS011;48683;48.084;17.272;2023-06-24T09:19:41;0.95;;;0.95;;
62610;SDS011;48683;48.084;17.272;2023-06-24T09:22:09;1.77;;;1.00;;
62610;SDS011;48683;48.084;17.272;2023-06-24T09:24:41;1.77;;;1.10;;
62610;SDS011;48683;48.084;17.272;2023-06-24T09:27:07;1.73;;;1.38;;
62610;SDS011;48683;48.084;17.272;2023-06-24T09:29:33;1.40;;;1.30;;
62610;SDS011;48683;48.084;17.272;2023-06-24T09:32:03;2.17;;;1.10;;
62610;SDS011;48683;48.084;17.272;2023-06-24T09:34:30;1.42;;;1.10;;
62610;SDS011;48683;48.084;17.272;2023-06-24T09:36:56;1.20;;;1.10;;
62610;SDS011;48683;48.084;17.272;2023-06-24T09:39:22;2.95;;;0.95;;
62610;SDS011;48683;48.084;17.272;2023-06-24T09:41:58;2.22;;;1.00;;
62610;SDS011;48683;48.084;17.272;2023-06-24T09:44:25;1.20;;;1.10;;
62610;SDS011;48683;48.084;17.272;2023-06-24T09:46:51;2.00;;;1.10;;
62610;SDS011;48683;48.084;17.272;2023-06-24T09:49:17;1.30;;;1.20;;
62610;SDS011;48683;48.084;17.272;2023-06-24T09:51:44;1.40;;;1.10;;
62610;SDS011;48683;48.084;17.272;2023-06-24T09:54:14;1.08;;;1.08;;
62610;SDS011;48683;48.084;17.272;2023-06-24T09:56:43;1.20;;;1.10;;
62610;SDS011;48683;48.084;17.272;2023-06-24T09:59:13;2.03;;;1.00;;
62610;SDS011;48683;48.084;17.272;2023-06-24T10:01:40;3.72;;;1.15;;
62610;SDS011;48683;48.084;17.272;2023-06-24T10:04:08;1.42;;;1.10;;
62610;SDS011;48683;48.084;17.272;2023-06-24T10:06:35;1.88;;;1.30;;
62610;SDS011;48683;48.084;17.272;2023-06-24T10:09:01;1.07;;;1.07;;
62610;SDS011;48683;48.084;17.272;2023-06-24T10:11:27;0.80;;;0.80;;
62610;SDS011;48683;48.084;17.272;2023-06-24T10:13:52;1.63;;;0.70;;
62610;SDS011;48683;48.084;17.272;2023-06-24T10:16:18;3.40;;;0.67;;
62610;SDS011;48683;48.084;17.272;2023-06-24T10:18:44;0.60;;;0.60;;
62610;SDS011;48683;48.084;17.272;2023-06-24T10:23:39;0.60;;;0.50;;
62610;SDS011;48683;48.084;17.272;2023-06-24T10:26:09;0.50;;;0.50;;
62610;SDS011;48683;48.084;17.272;2023-06-24T10:32:12;0.60;;;0.52;;
62610;SDS011;48683;48.084;17.272;2023-06-24T10:36:53;1.30;;;0.82;;
62610;SDS011;48683;48.084;17.272;2023-06-24T10:40:02;5.03;;;0.90;;
62610;SDS011;48683;48.084;17.272;2023-06-24T10:44:57;1.02;;;1.00;;
62610;SDS011;48683;48.084;17.272;2023-06-24T10:47:25;1.05;;;0.98;;
62610;SDS011;48683;48.084;17.272;2023-06-24T10:49:51;0.88;;;0.88;;
62610;SDS011;48683;48.084;17.272;2023-06-24T10:52:20;2.70;;;0.93;;
62610;SDS011;48683;48.084;17.272;2023-06-24T10:54:47;1.85;;;0.95;;
62610;SDS011;48683;48.084;17.272;2023-06-24T10:59:42;4.67;;;1.10;;
62610;SDS011;48683;48.084;17.272;2023-06-24T11:02:13;1.48;;;0.85;;
62610;SDS011;48683;48.084;17.272;2023-06-24T11:04:55;1.35;;;1.13;;
62610;SDS011;48683;48.084;17.272;2023-06-24T11:07:23;2.05;;;1.27;;
62610;SDS011;48683;48.084;17.272;2023-06-24T11:09:53;1.27;;;0.90;;
62610;SDS011;48683;48.084;17.272;2023-06-24T11:12:24;1.45;;;1.05;;
62610;SDS011;48683;48.084;17.272;2023-06-24T11:14:51;1.42;;;1.10;;
62610;SDS011;48683;48.084;17.272;2023-06-24T11:17:16;1.83;;;1.00;;
62610;SDS011;48683;48.084;17.272;2023-06-24T11:19:44;1.15;;;0.80;;
62610;SDS011;48683;48.084;17.272;2023-06-24T11:22:09;1.00;;;1.00;;
62610;SDS011;48683;48.084;17.272;2023-06-24T11:24:35;1.40;;;1.17;;
62610;SDS011;48683;48.084;17.272;2023-06-24T11:27:01;1.83;;;1.50;;
62610;SDS011;48683;48.084;17.272;2023-06-24T11:29:29;2.75;;;1.27;;
62610;SDS011;48683;48.084;17.272;2023-06-24T11:31:55;3.00;;;1.05;;
62610;SDS011;48683;48.084;17.272;2023-06-24T11:34:20;2.50;;;1.30;;
62610;SDS011;48683;48.084;17.272;2023-06-24T11:36:46;3.57;;;1.47;;
62610;SDS011;48683;48.084;17.272;2023-06-24T11:41:52;1.20;;;1.10;;
62610;SDS011;48683;48.084;17.272;2023-06-24T11:44:18;2.25;;;1.38;;
62610;SDS011;48683;48.084;17.272;2023-06-24T11:46:45;3.00;;;1.15;;
62610;SDS011;48683;48.084;17.272;2023-06-24T11:49:10;1.30;;;1.20;;
62610;SDS011;48683;48.084;17.272;2023-06-24T11:51:37;1.40;;;1.30;;
62610;SDS011;48683;48.084;17.272;2023-06-24T11:54:15;1.30;;;1.20;;
62610;SDS011;48683;48.084;17.272;2023-06-24T11:56:42;1.90;;;1.20;;
62610;SDS011;48683;48.084;17.272;2023-06-24T11:59:42;1.70;;;1.10;;
62610;SDS011;48683;48.084;17.272;2023-06-24T12:02:00;2.72;;;1.00;;
62610;SDS011;48683;48.084;17.272;2023-06-24T12:04:31;1.38;;;1.20;;
62610;SDS011;48683;48.084;17.272;2023-06-24T12:06:57;2.95;;;1.30;;
62610;SDS011;48683;48.084;17.272;2023-06-24T12:09:23;2.38;;;1.20;;
62610;SDS011;48683;48.084;17.272;2023-06-24T12:11:49;1.52;;;1.30;;
62610;SDS011;48683;48.084;17.272;2023-06-24T12:14:15;2.47;;;1.27;;
62610;SDS011;48683;48.084;17.272;2023-06-24T12:16:40;1.87;;;1.20;;
62610;SDS011;48683;48.084;17.272;2023-06-24T12:19:06;1.27;;;1.17;;
62610;SDS011;48683;48.084;17.272;2023-06-24T12:21:32;3.28;;;1.52;;
62610;SDS011;48683;48.084;17.272;2023-06-24T12:23:58;1.30;;;1.20;;
62610;SDS011;48683;48.084;17.272;2023-06-24T12:26:23;1.47;;;1.30;;
62610;SDS011;48683;48.084;17.272;2023-06-24T12:28:49;2.93;;;1.33;;
62610;SDS011;48683;48.084;17.272;2023-06-24T12:31:14;1.93;;;1.20;;
62610;SDS011;48683;48.084;17.272;2023-06-24T12:33:39;1.37;;;1.10;;
62610;SDS011;48683;48.084;17.272;2023-06-24T12:36:05;1.00;;;1.00;;
62610;SDS011;48683;48.084;17.272;2023-06-24T12:38:30;3.00;;;1.03;;
62610;SDS011;48683;48.084;17.272;2023-06-24T12:40:56;2.20;;;1.17;;
62610;SDS011;48683;48.084;17.272;2023-06-24T12:43:22;1.40;;;0.73;;
62610;SDS011;48683;48.084;17.272;2023-06-24T12:45:47;1.70;;;1.10;;
62610;SDS011;48683;48.084;17.272;2023-06-24T12:48:13;1.70;;;1.13;;
62610;SDS011;48683;48.084;17.272;2023-06-24T12:50:39;0.82;;;0.82;;
62610;SDS011;48683;48.084;17.272;2023-06-24T12:53:04;1.33;;;1.13;;
62610;SDS011;48683;48.084;17.272;2023-06-24T12:55:30;0.90;;;0.87;;
62610;SDS011;48683;48.084;17.272;2023-06-24T12:57:55;2.13;;;1.00;;
62610;SDS011;48683;48.084;17.272;2023-06-24T13:00:22;4.18;;;1.00;;
62610;SDS011;48683;48.084;17.272;2023-06-24T13:02:48;2.53;;;1.00;;
62610;SDS011;48683;48.084;17.272;2023-06-24T13:05:14;1.40;;;1.00;;
62610;SDS011;48683;48.084;17.272;2023-06-24T13:07:40;1.73;;;1.10;;
62610;SDS011;48683;48.084;17.272;2023-06-24T13:10:05;3.07;;;1.00;;
62610;SDS011;48683;48.084;17.272;2023-06-24T13:12:34;0.87;;;0.83;;
62610;SDS011;48683;48.084;17.272;2023-06-24T13:15:00;0.98;;;0.90;;
62610;SDS011;48683;48.084;17.272;2023-06-24T13:17:25;1.30;;;0.90;;
62610;SDS011;48683;48.084;17.272;2023-06-24T13:19:51;3.00;;;1.03;;
62610;SDS011;48683;48.084;17.272;2023-06-24T13:22:16;0.90;;;0.90;;
62610;SDS011;48683;48.084;17.272;2023-06-24T13:24:43;0.98;;;0.90;;
62610;SDS011;48683;48.084;17.272;2023-06-24T13:27:08;1.77;;;1.10;;
62610;SDS011;48683;48.084;17.272;2023-06-24T13:29:34;0.87;;;0.87;;
62610;SDS011;48683;48.084;17.272;2023-06-24T13:31:59;0.80;;;0.80;;
62610;SDS011;48683;48.084;17.272;2023-06-24T13:34:24;2.90;;;1.00;;
62610;SDS011;48683;48.084;17.272;2023-06-24T13:36:50;1.90;;;1.10;;
62610;SDS011;48683;48.084;17.272;2023-06-24T13:39:15;2.00;;;1.10;;
62610;SDS011;48683;48.084;17.272;2023-06-24T13:41:44;1.13;;;1.10;;
62610;SDS011;48683;48.084;17.272;2023-06-24T13:44:10;5.28;;;1.40;;
62610;SDS011;48683;48.084;17.272;2023-06-24T13:46:35;1.80;;;1.10;;
62610;SDS011;48683;48.084;17.272;2023-06-24T13:49:01;3.67;;;1.40;;
62610;SDS011;48683;48.084;17.272;2023-06-24T13:51:27;2.08;;;1.17;;
62610;SDS011;48683;48.084;17.272;2023-06-24T13:53:53;1.27;;;1.17;;
62610;SDS011;48683;48.084;17.272;2023-06-24T13:56:22;1.08;;;1.08;;
62610;SDS011;48683;48.084;17.272;2023-06-24T14:01:14;2.13;;;1.40;;
62610;SDS011;48683;48.084;17.272;2023-06-24T14:03:40;1.30;;;1.00;;
62610;SDS011;48683;48.084;17.272;2023-06-24T14:06:06;2.10;;;1.20;;
62610;SDS011;48683;48.084;17.272;2023-06-24T14:08:32;4.05;;;1.27;;
62610;SDS011;48683;48.084;17.272;2023-06-24T14:10:58;1.23;;;1.10;;
62610;SDS011;48683;48.084;17.272;2023-06-24T14:13:24;1.33;;;1.20;;
62610;SDS011;48683;48.084;17.272;2023-06-24T14:15:51;3.47;;;1.55;;
62610;SDS011;48683;48.084;17.272;2023-06-24T14:18:17;3.53;;;1.77;;
62610;SDS011;48683;48.084;17.272;2023-06-24T14:20:42;1.43;;;1.33;;
62610;SDS011;48683;48.084;17.272;2023-06-24T14:23:08;1.57;;;1.47;;
62610;SDS011;48683;48.084;17.272;2023-06-24T14:25:33;2.50;;;1.77;;
62610;SDS011;48683;48.084;17.272;2023-06-24T14:27:58;1.43;;;1.33;;
62610;SDS011;48683;48.084;17.272;2023-06-24T14:30:24;2.10;;;1.57;;
62610;SDS011;48683;48.084;17.272;2023-06-24T14:32:49;1.43;;;1.33;;
62610;SDS011;48683;48.084;17.272;2023-06-24T14:35:14;3.47;;;1.40;;
62610;SDS011;48683;48.084;17.272;2023-06-24T14:37:40;1.73;;;1.60;;
62610;SDS011;48683;48.084;17.272;2023-06-24T14:40:07;2.22;;;1.40;;
62610;SDS011;48683;48.084;17.272;2023-06-24T14:42:32;1.77;;;1.63;;
62610;SDS011;48683;48.084;17.272;2023-06-24T14:44:58;2.87;;;1.60;;
62610;SDS011;48683;48.084;17.272;2023-06-24T14:47:23;2.83;;;1.50;;
62610;SDS011;48683;48.084;17.272;2023-06-24T14:49:49;1.83;;;1.70;;
62610;SDS011;48683;48.084;17.272;2023-06-24T14:52:14;3.70;;;1.70;;
62610;SDS011;48683;48.084;17.272;2023-06-24T14:54:39;4.13;;;1.70;;
62610;SDS011;48683;48.084;17.272;2023-06-24T14:57:05;2.40;;;1.70;;
62610;SDS011;48683;48.084;17.272;2023-06-24T14:59:30;1.30;;;1.20;;
62610;SDS011;48683;48.084;17.272;2023-06-24T15:01:55;1.77;;;1.67;;
62610;SDS011;48683;48.084;17.272;2023-06-24T15:04:21;2.03;;;1.60;;
62610;SDS011;48683;48.084;17.272;2023-06-24T15:06:46;2.20;;;1.90;;
62610;SDS011;48683;48.084;17.272;2023-06-24T15:09:11;3.47;;;1.77;;